Detall de PIREP

Printer-friendly versionPDF version

[2011/05/13 08:17:00]
Flight IATA:CT2113
Pilot Number:041
Company ICAO:CAT
Aircraft Type:B463/A
PAX:61
Departing Airport: LEZL
Destination Airport: LEVC
Alternate Airport:LERS
Online: VATSIM
Route:VIBAS UM985 ASTRO
Flight Level:F260
No Slew and time accel
No pause
Crash detect
Detect pilot in Cockpit between each 30 and 45 minutes
08:17 Zero fuel Weight: 72707 Lbs, Fuel Weight: 12369 Lbs
08:17 VATSIM:LEZL 130800Z VRB02KT CAVOK 22/09 Q1015 NOSIG
08:17 VATSIM:LEVC 130800Z 03003KT 330V080 CAVOK 20/10 Q1019 NOSIG
08:18 VOICE CATALONIAN
08:22 Parking Brakes off
08:29 Take-off
08:29 Take off Weight: 84561 Lbs
08:29 Wind: 203º @ 002 Knots Heading: 090º
08:29 POS N37º 25´ 04´´ W005º 53´ 37´´
08:29 Gear Up: 187 Knots
08:29 Flaps:1 at 187 Knots
08:29 Flaps:0 at 236 Knots
08:40 TOC
08:40 Fuel Weight: 10260 Lb
08:44 Wind:194º@000 Knots Heading: 091º Ground Speed: 384 Knots Altitude 26115 ft
08:59 Wind:213º@001 Knots Heading: 046º Ground Speed: 403 Knots Altitude 26190 ft
09:05 TOD
09:05 Fuel Weight: 8016 Lb
09:14 Wind:348º@002 Knots Heading: 069º Ground Speed: 271 Knots Altitude 7444 ft
09:16 Flaps:1 at 214 Knots
09:27 Gear Down: 184 Knots
09:27 Flaps:2 at 177 Knots
09:29 Wind:128º@002 Knots Heading: 296º Ground Speed: 146 Knots Altitude 2316 ft
09:29 Flaps:3 at 142 Knots
09:31 TouchDown:Rate -201 ft/min Speed: 126 Knots
09:31 Flaps:2 at 107 Knots
09:31 Flaps:0 at 102 Knots
09:32 VATSIM:LEVC 130900Z VRB02KT CAVOK 22/11 Q1019 NOSIG
09:32 Land
09:32 Wind:348º@002 Knots
09:32 Heading: 296º
09:32 Flight Duration: 01:03
09:32 Landing Weight: 79472 Lbs
09:32 POS N39º 29´ 16´´ W000º 28´ 41´´
09:34 Parking brakes on
09:34 Block to Block Duration: 01:12
09:34 Final Fuel: 6684 Lbls
09:34 Spent Fuel: 5685 Lbls
09:34 Flight Length: 325 NM
09:34 TOD Land Length: 103 NM

Exportar CSV

Powered by Drupal - Modified by Danger4k